createdAt,value
2017-12-26T00:01:35.140Z,70.50
2017-12-26T00:04:04.324Z,71.80
2017-12-26T00:06:35.754Z,72.50
2017-12-26T00:09:04.271Z,69.60
2017-12-26T00:11:32.657Z,70.10
2017-12-26T00:14:01.090Z,70.50
2017-12-26T00:16:30.443Z,71.30
2017-12-26T00:18:58.953Z,71.70
2017-12-26T00:21:27.434Z,74.90
2017-12-26T00:23:56.588Z,70.70
2017-12-26T00:26:25.004Z,71.80
2017-12-26T00:28:53.429Z,71.20
2017-12-26T00:31:21.837Z,70.50
2017-12-26T00:33:50.277Z,72.40
2017-12-26T00:36:19.488Z,69.80
2017-12-26T00:38:47.890Z,70.40
2017-12-26T00:41:16.330Z,72.70
2017-12-26T00:43:45.532Z,72.10
2017-12-26T00:46:13.953Z,72.70
2017-12-26T00:48:43.156Z,70.10
2017-12-26T00:51:11.590Z,70.80
2017-12-26T00:53:39.987Z,71.30
2017-12-26T00:56:09.174Z,70.90
2017-12-26T00:58:37.634Z,71.40
2017-12-26T01:01:06.123Z,72.00
2017-12-26T01:03:34.421Z,73.40
2017-12-26T01:06:02.987Z,70.50
2017-12-26T01:08:31.418Z,70.80
2017-12-26T01:10:59.799Z,69.80
2017-12-26T01:13:28.213Z,71.10
2017-12-26T01:15:56.645Z,71.90
2017-12-26T01:18:25.014Z,70.30
2017-12-26T01:20:53.435Z,69.80
2017-12-26T01:23:21.851Z,71.10
2017-12-26T01:25:50.273Z,70.30
2017-12-26T01:28:18.701Z,69.70
2017-12-26T01:30:47.222Z,69.70
2017-12-26T01:33:15.690Z,69.40
2017-12-26T01:35:44.084Z,69.90
2017-12-26T01:38:12.479Z,70.10
2017-12-26T01:40:40.909Z,70.60
2017-12-26T01:43:09.290Z,71.20
2017-12-26T01:45:37.706Z,71.40
2017-12-26T01:48:06.116Z,71.10
2017-12-26T01:50:34.576Z,70.10
2017-12-26T01:53:02.967Z,70.70
2017-12-26T01:55:32.137Z,71.80
2017-12-26T01:58:00.553Z,72.60
2017-12-26T02:00:29.739Z,72.60
2017-12-26T02:02:58.148Z,73.30
2017-12-26T02:05:26.620Z,72.70
2017-12-26T02:07:55.794Z,72.40
2017-12-26T02:10:26.093Z,73.00
2017-12-26T02:12:54.944Z,73.30
2017-12-26T02:15:23.371Z,74.00
2017-12-26T02:17:51.792Z,73.30
2017-12-26T02:20:20.189Z,73.00
2017-12-26T02:22:48.591Z,72.90
2017-12-26T02:25:17.018Z,72.60
2017-12-26T02:27:46.251Z,72.50
2017-12-26T02:30:15.421Z,73.10
2017-12-26T02:32:43.828Z,73.80
2017-12-26T02:35:12.257Z,73.10
2017-12-26T02:37:40.667Z,73.60
2017-12-26T02:40:08.369Z,73.90
2017-12-26T02:42:36.785Z,74.00
2017-12-26T02:45:05.952Z,73.80
2017-12-26T02:47:34.381Z,74.30
2017-12-26T02:50:02.807Z,74.70
2017-12-26T02:52:31.985Z,74.20
2017-12-26T02:55:00.390Z,74.20
2017-12-26T02:57:28.767Z,73.80
2017-12-26T02:59:57.197Z,74.30
2017-12-26T03:02:25.602Z,74.40
2017-12-26T03:04:54.015Z,74.70
2017-12-26T03:07:22.473Z,74.60
2017-12-26T03:09:51.644Z,74.90
2017-12-26T03:12:20.034Z,75.40
2017-12-26T03:14:48.464Z,75.70
2017-12-26T03:17:16.887Z,75.70
2017-12-26T03:19:46.077Z,75.20
2017-12-26T03:22:14.470Z,76.00
2017-12-26T03:24:42.922Z,75.30
2017-12-26T03:27:11.356Z,75.90
2017-12-26T03:29:39.724Z,76.10
2017-12-26T03:32:08.158Z,76.10
2017-12-26T03:34:36.745Z,76.50
2017-12-26T03:37:06.801Z,76.50
2017-12-26T03:39:35.986Z,76.00
2017-12-26T03:42:04.085Z,76.40
2017-12-26T03:44:32.536Z,76.20
2017-12-26T03:47:01.115Z,76.80
2017-12-26T03:49:29.545Z,76.70
2017-12-26T03:51:59.426Z,77.20
2017-12-26T03:54:27.855Z,77.80
2017-12-26T03:56:56.238Z,78.00
2017-12-26T03:59:24.623Z,78.30
2017-12-26T04:01:53.030Z,78.30
2017-12-26T04:04:21.438Z,77.80
2017-12-26T04:06:49.817Z,77.90
2017-12-26T04:09:19.002Z,77.20
2017-12-26T04:11:47.424Z,77.80
2017-12-26T04:14:15.908Z,77.30
2017-12-26T04:16:44.341Z,77.90
2017-12-26T04:19:12.749Z,78.10
2017-12-26T04:21:41.199Z,77.90
2017-12-26T04:24:09.599Z,78.20
2017-12-26T04:26:38.031Z,78.20
2017-12-26T04:29:06.457Z,78.10
2017-12-26T04:31:34.880Z,77.70
2017-12-26T04:34:03.296Z,77.90
2017-12-26T04:36:32.524Z,77.50
2017-12-26T04:39:00.920Z,77.90
2017-12-26T04:41:29.295Z,78.30
2017-12-26T04:43:57.747Z,78.30
2017-12-26T04:46:26.933Z,77.10
2017-12-26T04:48:55.358Z,77.70
2017-12-26T04:51:24.543Z,77.80
2017-12-26T04:53:52.945Z,78.30
2017-12-26T04:56:21.423Z,78.90
2017-12-26T04:58:49.881Z,78.30
2017-12-26T05:01:18.301Z,78.20
2017-12-26T05:03:46.708Z,78.60
2017-12-26T05:06:15.180Z,78.30
2017-12-26T05:08:43.586Z,78.30
2017-12-26T05:11:11.986Z,78.90
2017-12-26T05:13:40.398Z,78.50
2017-12-26T05:16:08.794Z,77.90
2017-12-26T05:18:37.189Z,77.30
2017-12-26T05:21:05.594Z,76.80
2017-12-26T05:23:34.015Z,77.80
2017-12-26T05:26:02.429Z,76.90
2017-12-26T05:28:30.801Z,76.80
2017-12-26T05:30:59.970Z,77.70
2017-12-26T05:33:28.424Z,77.60
2017-12-26T05:35:56.803Z,78.30
2017-12-26T05:38:25.971Z,77.00
2017-12-26T05:40:54.401Z,77.50
2017-12-26T05:43:22.836Z,77.50
2017-12-26T05:45:51.991Z,77.30
2017-12-26T05:48:20.403Z,78.00
2017-12-26T05:50:48.825Z,78.10
2017-12-26T05:53:17.305Z,78.00
2017-12-26T05:55:45.743Z,78.40
2017-12-26T05:58:14.155Z,78.70
2017-12-26T06:00:42.570Z,78.30
2017-12-26T06:03:10.960Z,78.30
2017-12-26T06:05:39.327Z,77.90
2017-12-26T06:08:07.716Z,78.20
2017-12-26T06:10:36.942Z,77.60
2017-12-26T06:13:06.155Z,77.50
2017-12-26T06:15:35.306Z,77.60
2017-12-26T06:18:03.701Z,78.10
2017-12-26T06:20:32.151Z,78.20
2017-12-26T06:23:00.549Z,78.40
2017-12-26T06:25:28.961Z,78.30
2017-12-26T06:27:57.390Z,78.70
2017-12-26T06:30:25.795Z,78.60
2017-12-26T06:32:54.240Z,79.10
2017-12-26T06:35:22.667Z,79.40
2017-12-26T06:37:51.101Z,79.00
2017-12-26T06:40:19.514Z,80.00
2017-12-26T06:42:47.917Z,80.00
2017-12-26T06:45:16.477Z,79.40
2017-12-26T06:47:44.888Z,78.70
2017-12-26T06:50:13.299Z,78.40
2017-12-26T06:52:41.714Z,79.20
2017-12-26T06:55:10.139Z,78.30
2017-12-26T06:57:43.125Z,77.80
2017-12-26T07:00:11.680Z,77.70
2017-12-26T07:02:40.865Z,77.40
2017-12-26T07:05:09.309Z,78.30
2017-12-26T07:07:37.737Z,78.40
2017-12-26T07:10:06.225Z,78.40
2017-12-26T07:24:09.795Z,75.80
2017-12-26T07:26:38.170Z,75.80
2017-12-26T07:29:06.518Z,76.10
2017-12-26T07:31:35.653Z,77.00
2017-12-26T07:34:03.985Z,77.00
2017-12-26T07:36:33.100Z,77.00
2017-12-26T07:39:01.456Z,77.00
2017-12-26T07:41:30.580Z,77.30
2017-12-26T07:43:58.940Z,77.20
2017-12-26T07:46:28.060Z,77.40
2017-12-26T07:48:56.391Z,77.40
2017-12-26T07:51:24.804Z,77.50
2017-12-26T07:53:53.703Z,77.90
2017-12-26T07:56:22.938Z,78.00
2017-12-26T07:58:52.258Z,77.80
2017-12-26T08:01:20.941Z,77.80
2017-12-26T08:03:49.302Z,78.00
2017-12-26T08:06:17.632Z,78.50
2017-12-26T08:08:45.960Z,78.10
2017-12-26T08:11:14.373Z,78.00
2017-12-26T08:13:42.724Z,78.20
2017-12-26T08:16:11.093Z,78.30
2017-12-26T08:18:39.436Z,78.20
2017-12-26T08:21:07.790Z,78.10
2017-12-26T08:23:36.138Z,78.30
2017-12-26T08:26:05.237Z,78.80
2017-12-26T08:28:34.369Z,78.90
2017-12-26T08:31:02.710Z,78.90
2017-12-26T08:33:31.822Z,79.10
2017-12-26T08:36:00.170Z,79.10
2017-12-26T08:38:29.293Z,79.70
2017-12-26T08:40:57.646Z,79.70
2017-12-26T08:43:26.766Z,79.30
2017-12-26T08:45:55.106Z,79.30
2017-12-26T08:48:23.952Z,79.70
2017-12-26T08:50:52.297Z,79.50
2017-12-26T08:53:20.927Z,78.90
2017-12-26T08:55:49.292Z,79.10
2017-12-26T08:58:17.629Z,79.30
2017-12-26T09:00:46.026Z,79.30
2017-12-26T09:03:14.383Z,79.20
2017-12-26T09:05:42.786Z,78.70
2017-12-26T09:08:11.133Z,78.70
2017-12-26T09:10:39.507Z,78.90
2017-12-26T09:13:08.601Z,78.80
2017-12-26T09:15:37.696Z,78.80
2017-12-26T09:18:06.912Z,78.40
2017-12-26T09:20:35.269Z,78.40
2017-12-26T09:23:04.353Z,77.10
2017-12-26T09:25:33.451Z,77.40
2017-12-26T09:28:02.585Z,77.10
2017-12-26T09:30:30.915Z,77.10
2017-12-26T09:33:00.016Z,76.40
2017-12-26T09:35:29.135Z,76.70
2017-12-26T09:37:57.478Z,76.70
2017-12-26T09:40:26.598Z,75.70
2017-12-26T09:42:54.917Z,75.70
2017-12-26T09:45:24.059Z,76.10
2017-12-26T09:47:53.607Z,75.40
2017-12-26T09:50:21.945Z,75.40
2017-12-26T09:52:50.292Z,75.60
2017-12-26T09:55:18.638Z,75.60
2017-12-26T09:57:47.116Z,75.00
2017-12-26T10:00:15.473Z,75.00
2017-12-26T10:02:43.800Z,75.60
2017-12-26T10:05:12.141Z,74.50
2017-12-26T10:07:40.497Z,74.70
2017-12-26T10:10:08.826Z,75.40
2017-12-26T10:12:37.153Z,73.90
2017-12-26T10:15:05.505Z,73.60
2017-12-26T10:17:33.973Z,73.40
2017-12-26T10:20:03.105Z,74.40
2017-12-26T10:22:31.440Z,74.40
2017-12-26T10:25:00.687Z,74.30
2017-12-26T10:27:29.047Z,74.30
2017-12-26T10:29:57.380Z,74.70
2017-12-26T10:32:25.803Z,75.20
2017-12-26T10:34:54.154Z,75.30
2017-12-26T10:37:24.151Z,74.50
2017-12-26T10:39:52.490Z,74.50
2017-12-26T10:42:20.902Z,74.30
2017-12-26T10:44:49.241Z,75.30
2017-12-26T10:47:17.590Z,74.30
2017-12-26T10:49:45.924Z,75.30
2017-12-26T10:52:14.267Z,75.60
2017-12-26T10:54:42.601Z,75.00
2017-12-26T10:57:11.727Z,74.90
2017-12-26T10:59:40.070Z,74.80
2017-12-26T11:02:10.222Z,73.80
2017-12-26T11:04:38.568Z,73.70
2017-12-26T11:07:07.683Z,74.10
2017-12-26T11:09:36.007Z,74.10
2017-12-26T11:12:05.320Z,73.20
2017-12-26T11:14:33.696Z,73.30
2017-12-26T11:17:02.046Z,71.40
2017-12-26T11:19:30.373Z,73.60
2017-12-26T11:21:58.733Z,71.90
2017-12-26T11:24:27.831Z,73.50
2017-12-26T11:26:56.997Z,71.90
2017-12-26T11:29:25.341Z,72.60
2017-12-26T11:31:56.694Z,70.40
2017-12-26T11:34:25.942Z,69.70
2017-12-26T11:36:54.320Z,69.80
2017-12-26T11:39:24.129Z,69.70
2017-12-26T11:41:52.506Z,69.70
2017-12-26T11:44:21.025Z,69.10
2017-12-26T11:46:49.417Z,68.40
2017-12-26T11:49:17.777Z,69.20
2017-12-26T11:51:46.251Z,70.60
2017-12-26T11:54:14.641Z,68.80
2017-12-26T11:56:43.164Z,69.80
2017-12-26T11:59:11.513Z,70.50
2017-12-26T12:01:39.855Z,69.80
2017-12-26T12:04:08.175Z,70.10
2017-12-26T12:06:37.302Z,69.80
2017-12-26T12:09:06.396Z,68.60
2017-12-26T12:11:35.546Z,67.60
2017-12-26T12:14:04.825Z,65.90
2017-12-26T12:16:33.228Z,65.90
2017-12-26T12:19:02.362Z,65.90
2017-12-26T12:21:31.465Z,64.50
2017-12-26T12:24:00.570Z,66.00
2017-12-26T12:26:28.936Z,66.10
2017-12-26T12:28:58.036Z,65.50
2017-12-26T12:31:27.172Z,66.50
2017-12-26T12:33:55.522Z,66.50
2017-12-26T12:36:23.877Z,66.20
2017-12-26T12:38:53.874Z,66.00
2017-12-26T12:41:22.395Z,65.90
2017-12-26T12:43:51.112Z,66.00
2017-12-26T12:46:19.456Z,66.00
2017-12-26T12:48:47.804Z,67.30
2017-12-26T12:51:16.900Z,67.50
2017-12-26T12:53:45.452Z,67.50
2017-12-26T12:56:13.841Z,67.70
2017-12-26T12:58:42.198Z,67.10
2017-12-26T13:01:10.540Z,67.80
2017-12-26T13:03:38.883Z,67.60
2017-12-26T13:06:07.994Z,68.70
2017-12-26T13:08:36.321Z,68.70
2017-12-26T13:11:04.706Z,68.60
2017-12-26T13:13:33.061Z,69.50
2017-12-26T13:16:01.420Z,69.10
2017-12-26T13:18:29.772Z,69.70
2017-12-26T13:20:58.125Z,69.20
2017-12-26T13:23:26.465Z,69.20
2017-12-26T13:25:54.813Z,69.40
2017-12-26T13:28:23.154Z,69.70
2017-12-26T13:30:51.783Z,69.50
2017-12-26T13:33:20.125Z,70.50
2017-12-26T13:35:49.296Z,70.30
2017-12-26T13:38:17.637Z,70.20
2017-12-26T13:40:45.989Z,70.60
2017-12-26T13:43:14.320Z,70.10
2017-12-26T13:45:42.674Z,70.40
2017-12-26T13:48:11.003Z,70.30
2017-12-26T13:50:40.179Z,69.80
2017-12-26T13:53:08.528Z,69.70
2017-12-26T13:55:36.872Z,70.10
2017-12-26T13:58:05.223Z,70.60
2017-12-26T14:00:34.404Z,69.80
2017-12-26T14:03:02.740Z,69.70
2017-12-26T14:05:31.081Z,70.70
2017-12-26T14:08:00.169Z,70.00
2017-12-26T14:10:29.282Z,70.00
2017-12-26T14:12:57.624Z,70.00
2017-12-26T14:15:26.005Z,70.00
2017-12-26T14:17:55.105Z,70.80
2017-12-26T14:20:24.399Z,70.00
2017-12-26T14:22:53.426Z,71.10
2017-12-26T14:25:22.853Z,71.50
2017-12-26T14:27:51.109Z,70.60
2017-12-26T14:30:19.529Z,70.00
2017-12-26T14:32:47.890Z,69.80
2017-12-26T14:35:16.235Z,69.70
2017-12-26T14:37:44.571Z,69.00
2017-12-26T14:40:12.944Z,68.60
2017-12-26T14:42:41.288Z,70.30
2017-12-26T14:45:09.521Z,69.60
2017-12-26T14:47:38.632Z,69.10
2017-12-26T14:50:07.037Z,69.10
2017-12-26T14:52:35.396Z,69.80
2017-12-26T14:55:03.397Z,68.90
2017-12-26T14:57:31.747Z,70.00
2017-12-26T15:00:00.149Z,70.00
2017-12-26T15:02:28.547Z,70.10
2017-12-26T15:04:57.014Z,70.00
2017-12-26T15:07:25.336Z,69.10
2017-12-26T15:09:53.868Z,70.00
2017-12-26T15:12:22.193Z,70.40
2017-12-26T15:14:50.638Z,71.00
2017-12-26T15:17:19.752Z,71.20
2017-12-26T15:19:48.918Z,71.00
2017-12-26T15:22:17.085Z,71.00
2017-12-26T15:24:45.284Z,71.80
2017-12-26T15:27:14.206Z,72.00
2017-12-26T15:29:42.554Z,71.90
2017-12-26T15:32:11.655Z,70.50
2017-12-26T15:34:40.817Z,69.00
2017-12-26T15:37:09.182Z,68.90
2017-12-26T15:39:37.558Z,70.40
2017-12-26T15:42:05.902Z,69.80
2017-12-26T15:44:34.239Z,72.20
2017-12-26T15:47:03.423Z,72.60
2017-12-26T15:49:31.765Z,72.60
2017-12-26T15:52:00.190Z,71.90
2017-12-26T15:54:29.308Z,73.20
2017-12-26T15:56:57.652Z,73.30
2017-12-26T15:59:26.021Z,72.90
2017-12-26T16:01:54.382Z,70.40
2017-12-26T16:04:23.312Z,71.40
2017-12-26T16:06:52.351Z,73.20
2017-12-26T16:09:20.702Z,73.10
2017-12-26T16:11:49.042Z,72.90
2017-12-26T16:14:17.387Z,71.80
2017-12-26T16:16:45.753Z,74.50
2017-12-26T16:19:14.191Z,73.90
2017-12-26T16:21:42.717Z,74.90
2017-12-26T16:24:12.123Z,75.20
2017-12-26T16:26:40.483Z,73.10
2017-12-26T16:29:10.036Z,74.70
2017-12-26T16:31:38.367Z,72.00
2017-12-26T16:34:06.742Z,73.60
2017-12-26T16:36:35.077Z,71.50
2017-12-26T16:39:03.511Z,74.50
2017-12-26T16:41:31.861Z,74.50
2017-12-26T16:44:00.281Z,74.00
2017-12-26T16:46:28.634Z,72.90
2017-12-26T16:48:57.021Z,72.70
2017-12-26T16:51:26.106Z,72.70
2017-12-26T16:53:54.517Z,72.70
2017-12-26T16:56:23.491Z,72.30
2017-12-26T16:58:52.529Z,72.10
2017-12-26T17:01:22.010Z,74.00
2017-12-26T17:03:50.377Z,74.10
2017-12-26T17:06:18.734Z,71.80
2017-12-26T17:08:47.133Z,73.10
2017-12-26T17:11:15.684Z,73.50
2017-12-26T17:13:44.077Z,72.80
2017-12-26T17:16:12.420Z,73.00
2017-12-26T17:18:40.760Z,73.70
2017-12-26T17:21:09.883Z,74.80
2017-12-26T17:23:38.286Z,74.80
2017-12-26T17:26:06.634Z,75.60
2017-12-26T17:28:34.989Z,76.70
2017-12-26T17:31:04.093Z,76.00
2017-12-26T17:33:32.547Z,75.90
2017-12-26T17:36:00.877Z,76.20
2017-12-26T17:38:29.238Z,77.10
2017-12-26T17:40:57.587Z,76.20
2017-12-26T17:43:26.775Z,75.10
2017-12-26T17:45:55.114Z,75.00
2017-12-26T17:48:23.864Z,73.70
2017-12-26T17:50:52.196Z,76.10
2017-12-26T17:53:20.577Z,76.50
2017-12-26T17:55:48.927Z,74.40
2017-12-26T17:58:17.267Z,76.20
2017-12-26T18:00:45.605Z,74.60
2017-12-26T18:03:13.976Z,73.30
2017-12-26T18:05:42.324Z,74.90
2017-12-26T18:08:10.753Z,76.90
2017-12-26T18:10:39.066Z,76.40
2017-12-26T18:13:07.498Z,76.20
2017-12-26T18:15:35.850Z,72.80
2017-12-26T18:18:03.917Z,74.90
2017-12-26T18:20:32.258Z,73.80
2017-12-26T18:23:00.698Z,75.80
2017-12-26T18:25:29.048Z,72.70
2017-12-26T18:27:57.439Z,72.50
2017-12-26T18:30:25.795Z,76.30
2017-12-26T18:32:54.204Z,77.00
2017-12-26T18:35:22.695Z,75.30
2017-12-26T18:37:51.407Z,75.70
2017-12-26T18:40:19.827Z,75.90
2017-12-26T18:42:47.992Z,74.80
2017-12-26T18:45:16.332Z,75.00
2017-12-26T18:47:44.685Z,76.30
2017-12-26T18:50:13.790Z,74.70
2017-12-26T18:52:42.880Z,74.80
2017-12-26T18:55:12.006Z,73.60
2017-12-26T18:57:40.344Z,73.60
2017-12-26T19:00:09.447Z,75.20
2017-12-26T19:02:38.595Z,75.20
2017-12-26T19:05:07.708Z,74.40
2017-12-26T19:07:36.050Z,74.40
2017-12-26T19:10:04.413Z,75.50
2017-12-26T19:12:32.748Z,75.20
2017-12-26T19:15:01.084Z,74.50
2017-12-26T19:17:29.445Z,74.90
2017-12-26T19:19:57.785Z,75.80
2017-12-26T19:22:26.329Z,75.60
2017-12-26T19:24:54.713Z,75.00
2017-12-26T19:27:23.856Z,74.70
2017-12-26T19:29:53.724Z,75.30
2017-12-26T19:32:22.691Z,75.30
2017-12-26T19:34:51.960Z,77.30
2017-12-26T19:37:20.307Z,76.60
2017-12-26T19:39:48.783Z,74.70
2017-12-26T19:42:17.137Z,76.10
2017-12-26T19:44:45.512Z,74.70
2017-12-26T19:47:13.844Z,75.20
2017-12-26T19:49:42.969Z,76.10
2017-12-26T19:52:11.317Z,76.20
2017-12-26T19:54:39.669Z,74.80
2017-12-26T19:57:08.013Z,74.00
2017-12-26T19:59:36.420Z,74.80
2017-12-26T20:02:04.800Z,73.80
2017-12-26T20:04:33.159Z,74.20
2017-12-26T20:07:01.524Z,75.60
2017-12-26T20:09:29.910Z,74.50
2017-12-26T20:11:58.255Z,73.30
2017-12-26T20:14:26.643Z,74.40
2017-12-26T20:16:54.875Z,74.60
2017-12-26T20:19:24.143Z,75.10
2017-12-26T20:21:53.394Z,75.10
2017-12-26T20:24:22.828Z,76.10
2017-12-26T20:26:51.312Z,76.70
2017-12-26T20:29:20.650Z,75.60
2017-12-26T20:31:49.771Z,75.70
2017-12-26T20:34:17.863Z,75.70
2017-12-26T20:36:46.218Z,75.90
2017-12-26T20:39:14.561Z,78.70
2017-12-26T20:41:43.699Z,77.00
2017-12-26T20:44:12.138Z,77.10
2017-12-26T20:46:41.294Z,74.60
2017-12-26T20:49:10.450Z,74.60
2017-12-26T20:51:38.832Z,75.00
2017-12-26T20:54:07.175Z,77.40
2017-12-26T20:56:35.508Z,76.80
2017-12-26T20:59:03.929Z,76.40
2017-12-26T21:01:33.032Z,74.10
2017-12-26T21:04:02.234Z,76.10
2017-12-26T21:06:31.338Z,75.00
2017-12-26T21:08:59.784Z,75.00
2017-12-26T21:14:21.417Z,76.90
2017-12-26T21:16:49.773Z,76.10
2017-12-26T21:19:18.169Z,75.40
2017-12-26T21:21:46.515Z,74.40
2017-12-26T21:24:14.857Z,76.50
2017-12-26T21:26:43.982Z,75.30
2017-12-26T21:29:12.418Z,75.30
2017-12-26T21:31:41.524Z,75.20
2017-12-26T21:34:10.032Z,75.20
2017-12-26T21:36:38.184Z,76.30
2017-12-26T21:39:06.344Z,76.20
2017-12-26T21:41:35.256Z,75.70
2017-12-26T21:44:03.411Z,75.70
2017-12-26T21:46:32.525Z,76.90
2017-12-26T21:49:00.920Z,76.90
2017-12-26T21:51:29.083Z,75.90
2017-12-26T21:53:57.540Z,76.90
2017-12-26T21:56:25.877Z,77.30
2017-12-26T21:58:54.334Z,76.30
2017-12-26T22:01:23.033Z,75.80
2017-12-26T22:03:52.168Z,74.90
2017-12-26T22:06:20.575Z,74.40
2017-12-26T22:08:49.048Z,74.70
2017-12-26T22:57:10.265Z,74.50
2017-12-26T22:59:38.637Z,79.60
2017-12-26T23:02:06.978Z,79.40
2017-12-26T23:04:35.439Z,79.10
2017-12-26T23:07:04.362Z,78.80
2017-12-26T23:09:32.843Z,78.80
2017-12-26T23:12:01.389Z,78.50
2017-12-26T23:14:36.125Z,78.70
2017-12-26T23:17:10.675Z,78.20
2017-12-26T23:19:45.291Z,78.30
2017-12-26T23:22:14.562Z,77.90
2017-12-26T23:24:49.172Z,78.00
2017-12-26T23:27:22.956Z,77.90
2017-12-26T23:29:57.724Z,78.20
2017-12-26T23:32:44.533Z,78.10
2017-12-26T23:35:19.221Z,78.00
2017-12-26T23:37:53.240Z,78.50
2017-12-26T23:40:27.248Z,78.30
2017-12-26T23:43:01.850Z,77.40
2017-12-26T23:45:35.750Z,77.80
2017-12-26T23:48:09.810Z,78.20
2017-12-26T23:50:43.842Z,78.20
2017-12-26T23:53:17.780Z,78.20
2017-12-26T23:55:51.689Z,78.00
2017-12-26T23:58:25.676Z,78.40
